createdAt,value
2018-08-10T00:00:44.092Z,5.47
2018-08-10T00:03:12.982Z,5.25
2018-08-10T00:05:42.392Z,5.37
2018-08-10T00:08:11.179Z,5.78
2018-08-10T00:10:40.002Z,5.00
2018-08-10T00:13:08.766Z,5.20
2018-08-10T00:15:37.666Z,5.53
2018-08-10T00:18:06.544Z,5.25
2018-08-10T00:20:35.434Z,5.22
2018-08-10T00:23:04.331Z,5.10
2018-08-10T00:25:33.170Z,5.15
2018-08-10T00:28:02.075Z,4.67
2018-08-10T00:30:30.992Z,5.35
2018-08-10T00:32:59.860Z,5.20
2018-08-10T00:35:28.672Z,4.92
2018-08-10T00:37:57.540Z,5.17
2018-08-10T00:40:26.487Z,5.17
2018-08-10T00:42:55.984Z,5.33
2018-08-10T00:45:24.876Z,5.08
2018-08-10T00:47:53.860Z,4.87
2018-08-10T00:50:22.708Z,4.25
2018-08-10T00:52:51.545Z,5.00
2018-08-10T00:55:20.593Z,5.50
2018-08-10T00:57:49.918Z,5.17
2018-08-10T01:00:21.794Z,4.58
2018-08-10T01:02:51.268Z,4.75
2018-08-10T01:05:20.165Z,5.08
2018-08-10T01:07:49.623Z,5.10
2018-08-10T01:10:19.775Z,4.95
2018-08-10T01:12:48.670Z,5.05
2018-08-10T01:15:18.114Z,4.90
2018-08-10T01:17:47.333Z,4.85
2018-08-10T01:20:20.099Z,5.22
2018-08-10T01:22:54.117Z,5.10
2018-08-10T01:25:24.237Z,4.35
2018-08-10T01:27:59.158Z,4.95
2018-08-10T01:30:29.352Z,5.28
2018-08-10T01:32:58.394Z,5.00
2018-08-10T01:35:27.826Z,5.05
2018-08-10T01:37:57.655Z,4.75
2018-08-10T01:40:26.581Z,4.83
2018-08-10T01:42:55.333Z,4.40
2018-08-10T01:45:24.181Z,4.47
2018-08-10T01:47:53.084Z,5.45
2018-08-10T01:50:21.861Z,4.53
2018-08-10T01:52:50.664Z,4.65
2018-08-10T01:55:19.431Z,4.83
2018-08-10T01:57:48.331Z,4.62
2018-08-10T02:00:17.179Z,4.72
2018-08-10T02:02:45.952Z,4.50
2018-08-10T02:05:15.898Z,4.65
2018-08-10T02:07:44.967Z,4.62
2018-08-10T02:10:16.730Z,4.50
2018-08-10T02:12:46.434Z,5.08
2018-08-10T02:15:17.699Z,4.70
2018-08-10T02:17:46.586Z,4.50
2018-08-10T02:20:17.030Z,4.60
2018-08-10T02:22:46.193Z,5.08
2018-08-10T02:25:16.420Z,4.72
2018-08-10T02:27:46.379Z,4.80
2018-08-10T02:30:17.074Z,4.55
2018-08-10T02:32:46.849Z,4.22
2018-08-10T02:35:15.762Z,4.75
2018-08-10T02:37:44.668Z,5.08
2018-08-10T02:40:19.619Z,5.33
2018-08-10T02:42:49.301Z,4.70
2018-08-10T02:45:18.571Z,4.80
2018-08-10T02:47:48.024Z,4.72
2018-08-10T02:50:16.869Z,4.60
2018-08-10T02:52:46.010Z,4.65
2018-08-10T02:55:15.228Z,4.00
2018-08-10T02:57:44.203Z,4.35
2018-08-10T03:00:15.385Z,4.67
2018-08-10T03:02:44.721Z,4.90
2018-08-10T03:05:13.671Z,4.40
2018-08-10T03:07:42.756Z,4.65
2018-08-10T03:10:12.773Z,5.30
2018-08-10T03:12:41.545Z,5.20
2018-08-10T03:15:11.916Z,5.28
2018-08-10T03:17:40.753Z,4.92
2018-08-10T03:20:09.975Z,4.97
2018-08-10T03:25:09.930Z,5.03
2018-08-10T03:27:38.993Z,5.85
2018-08-10T03:30:09.444Z,5.22
2018-08-10T03:32:38.560Z,5.75
2018-08-10T03:35:07.443Z,5.67
2018-08-10T03:37:36.548Z,5.72
2018-08-10T03:40:07.193Z,4.75
2018-08-10T03:42:36.004Z,5.15
2018-08-10T03:45:05.218Z,5.28
2018-08-10T03:47:34.007Z,5.33
2018-08-10T03:50:02.773Z,5.62
2018-08-10T03:52:31.587Z,5.92
2018-08-10T03:55:00.383Z,4.97
2018-08-10T03:57:29.241Z,5.47
2018-08-10T03:59:58.052Z,5.55
2018-08-10T04:02:26.962Z,5.12
2018-08-10T04:04:55.755Z,5.50
2018-08-10T04:07:24.591Z,5.08
2018-08-10T04:09:53.305Z,5.25
2018-08-10T04:12:22.088Z,5.50
2018-08-10T04:14:50.926Z,5.47
2018-08-10T04:17:24.322Z,5.42
2018-08-10T04:19:54.143Z,5.50
2018-08-10T04:22:24.157Z,5.60
2018-08-10T04:24:53.224Z,5.33
2018-08-10T04:27:22.177Z,5.58
2018-08-10T04:29:50.980Z,5.10
2018-08-10T04:32:19.971Z,5.17
2018-08-10T04:34:48.823Z,5.60
2018-08-10T04:37:17.884Z,5.60
2018-08-10T04:39:46.743Z,5.37
2018-08-10T04:42:16.546Z,5.47
2018-08-10T04:44:45.374Z,5.80
2018-08-10T04:47:14.202Z,5.35
2018-08-10T04:49:42.970Z,5.15
2018-08-10T04:52:12.681Z,6.25
2018-08-10T04:54:41.481Z,5.53
2018-08-10T04:57:10.333Z,5.30
2018-08-10T04:59:39.119Z,6.12
2018-08-10T05:02:08.233Z,5.12
2018-08-10T05:04:37.126Z,5.20
2018-08-10T05:07:05.958Z,5.22
2018-08-10T05:09:34.725Z,5.42
2018-08-10T05:12:03.619Z,4.97
2018-08-10T05:14:32.436Z,5.20
2018-08-10T05:17:01.782Z,5.65
2018-08-10T05:19:30.732Z,5.10
2018-08-10T05:21:59.533Z,4.75
2018-08-10T05:24:28.358Z,4.80
2018-08-10T05:26:57.202Z,5.47
2018-08-10T05:29:26.097Z,4.72
2018-08-10T05:31:55.111Z,5.03
2018-08-10T05:34:23.878Z,5.50
2018-08-10T05:36:52.732Z,5.35
2018-08-10T05:39:21.543Z,5.78
2018-08-10T05:41:50.422Z,4.72
2018-08-10T05:44:19.222Z,4.95
2018-08-10T05:46:48.006Z,5.25
2018-08-10T05:49:16.833Z,4.90
2018-08-10T05:51:45.613Z,4.80
2018-08-10T05:54:14.419Z,5.10
2018-08-10T05:56:43.204Z,5.17
2018-08-10T05:59:11.982Z,4.65
2018-08-10T06:01:40.812Z,4.70
2018-08-10T06:04:09.861Z,4.58
2018-08-10T06:06:38.550Z,4.45
2018-08-10T06:09:15.311Z,4.67
2018-08-10T06:11:45.072Z,4.40
2018-08-10T06:14:15.042Z,4.40
2018-08-10T06:16:43.955Z,4.00
2018-08-10T06:19:12.736Z,4.37
2018-08-10T06:21:41.679Z,4.58
2018-08-10T06:24:26.434Z,4.80
2018-08-10T06:27:02.667Z,4.83
2018-08-10T06:29:32.574Z,4.40
2018-08-10T06:33:17.790Z,4.47
2018-08-10T06:35:59.636Z,4.25
2018-08-10T06:40:39.177Z,5.00
2018-08-10T06:43:07.975Z,5.22
2018-08-10T06:45:36.768Z,4.55
2018-08-10T06:48:08.284Z,5.25
2018-08-10T06:50:39.153Z,5.17
2018-08-10T06:53:08.013Z,4.72
2018-08-10T06:56:06.476Z,4.90
2018-08-10T06:58:36.075Z,4.83
2018-08-10T07:01:04.961Z,4.83
2018-08-10T07:03:33.750Z,4.30
2018-08-10T07:06:02.546Z,4.80
2018-08-10T07:08:31.314Z,5.83
2018-08-10T07:11:00.089Z,4.97
2018-08-10T07:13:28.991Z,5.22
2018-08-10T07:15:57.868Z,4.85
2018-08-10T07:18:26.630Z,4.75
2018-08-10T07:21:26.496Z,5.12
2018-08-10T07:23:55.322Z,5.22
2018-08-10T07:26:24.108Z,4.70
2018-08-10T07:28:52.894Z,5.00
2018-08-10T07:31:21.689Z,4.95
2018-08-10T07:33:50.648Z,4.55
2018-08-10T07:36:19.816Z,4.65
2018-08-10T07:38:48.585Z,4.53
2018-08-10T07:41:36.949Z,5.92
2018-08-10T07:44:17.669Z,4.90
2018-08-10T07:46:46.478Z,4.33
2018-08-10T07:49:15.244Z,4.62
2018-08-10T07:51:44.112Z,4.90
2018-08-10T07:54:12.971Z,5.20
2018-08-10T07:56:43.567Z,4.60
2018-08-10T07:59:12.489Z,4.97
2018-08-10T08:01:41.753Z,5.25
2018-08-10T08:04:11.001Z,4.97
2018-08-10T08:06:40.741Z,4.30
2018-08-10T08:09:12.079Z,4.70
2018-08-10T08:11:43.656Z,5.25
2018-08-10T08:14:19.816Z,5.28
2018-08-10T08:16:52.363Z,4.85
2018-08-10T08:19:50.614Z,5.05
2018-08-10T08:22:42.648Z,4.67
2018-08-10T08:25:11.541Z,5.22
2018-08-10T08:27:40.399Z,5.00
2018-08-10T08:30:10.172Z,4.70
2018-08-10T08:32:38.993Z,5.37
2018-08-10T08:35:47.265Z,5.28
2018-08-10T08:41:31.427Z,4.80
2018-08-10T08:44:37.517Z,5.30
2018-08-10T08:47:47.866Z,5.17
2018-08-10T08:51:53.528Z,5.10
2018-08-10T09:05:55.116Z,4.97
2018-08-10T09:08:24.041Z,4.70
2018-08-10T09:10:53.963Z,5.30
2018-08-10T09:13:22.995Z,4.75
2018-08-10T09:15:52.156Z,4.78
2018-08-10T09:18:40.142Z,5.15
2018-08-10T09:21:09.028Z,5.08
2018-08-10T09:23:40.318Z,5.42
2018-08-10T09:26:12.192Z,4.87
2018-08-10T09:29:05.509Z,5.20
2018-08-10T09:31:34.321Z,5.85
2018-08-10T09:34:07.687Z,5.20
2018-08-10T09:36:36.637Z,5.40
2018-08-10T09:39:09.882Z,5.17
2018-08-10T09:42:29.237Z,5.65
2018-08-10T09:44:58.164Z,5.35
2018-08-10T09:47:27.557Z,5.55
2018-08-10T09:49:56.373Z,5.15
2018-08-10T09:52:26.493Z,5.45
2018-08-10T09:55:27.585Z,5.30
2018-08-10T09:58:00.650Z,5.58
2018-08-10T10:00:34.741Z,5.75
2018-08-10T10:03:08.905Z,6.15
2018-08-10T10:05:37.828Z,5.65
2018-08-10T10:08:08.465Z,5.62
2018-08-10T10:10:37.597Z,5.72
2018-08-10T10:15:45.427Z,5.55
2018-08-10T10:18:15.580Z,5.58
2018-08-10T10:20:45.146Z,5.45
2018-08-10T10:23:14.044Z,5.67
2018-08-10T10:25:42.863Z,5.50
2018-08-10T10:28:11.725Z,5.75
2018-08-10T10:34:05.899Z,6.22
2018-08-10T10:36:34.713Z,5.90
2018-08-10T10:39:03.764Z,6.33
2018-08-10T10:41:45.148Z,6.37
2018-08-10T10:44:14.124Z,6.40
2018-08-10T10:47:16.490Z,6.50
2018-08-10T10:50:20.023Z,6.22
2018-08-10T10:52:49.179Z,5.47
2018-08-10T10:55:18.069Z,6.00
2018-08-10T10:57:46.873Z,6.10
2018-08-10T11:00:19.629Z,5.90
2018-08-10T11:13:34.600Z,6.20
2018-08-10T11:19:53.765Z,23.65
2018-08-10T11:22:26.768Z,13.38
2018-08-10T11:24:55.697Z,18.57
2018-08-10T11:30:31.928Z,23.30
2018-08-10T11:33:05.311Z,25.35
2018-08-10T11:35:36.249Z,26.55
2018-08-10T11:40:21.619Z,28.75
2018-08-10T11:42:50.487Z,24.98
2018-08-10T11:45:19.378Z,25.05
2018-08-10T11:47:48.272Z,25.05
2018-08-10T11:50:17.080Z,22.67
2018-08-10T11:53:17.655Z,23.07
2018-08-10T11:59:59.547Z,21.40
2018-08-10T12:02:38.260Z,20.45
2018-08-10T12:05:08.893Z,18.23
2018-08-10T12:07:37.722Z,17.60
2018-08-10T12:13:04.579Z,17.48
2018-08-10T12:15:33.428Z,16.97
2018-08-10T12:18:02.247Z,15.20
2018-08-10T12:23:29.263Z,15.25
2018-08-10T12:29:26.507Z,14.38
2018-08-10T12:31:55.285Z,14.00
2018-08-10T12:34:24.122Z,14.30
2018-08-10T12:36:52.917Z,14.38
2018-08-10T12:39:21.758Z,13.78
2018-08-10T12:41:50.711Z,14.33
2018-08-10T12:44:19.729Z,14.15
2018-08-10T12:46:48.544Z,13.15
2018-08-10T12:49:17.353Z,12.53
2018-08-10T12:51:46.259Z,12.63
2018-08-10T12:54:15.141Z,12.23
2018-08-10T12:56:43.958Z,12.85
2018-08-10T12:59:12.852Z,11.60
2018-08-10T13:01:41.668Z,11.60
2018-08-10T13:04:10.537Z,11.35
2018-08-10T13:06:39.362Z,11.83
2018-08-10T13:09:11.308Z,10.25
2018-08-10T13:11:40.367Z,11.18
2018-08-10T13:14:09.758Z,11.45
2018-08-10T13:16:38.631Z,10.43
2018-08-10T13:19:07.498Z,9.90
2018-08-10T13:21:36.487Z,9.30
2018-08-10T13:24:05.346Z,8.90
2018-08-10T13:26:34.912Z,10.82
2018-08-10T13:29:03.785Z,9.45
2018-08-10T13:37:31.247Z,8.93
2018-08-10T13:44:08.020Z,8.63
2018-08-10T13:46:36.894Z,7.53
2018-08-10T13:49:05.930Z,7.15
2018-08-10T13:55:44.625Z,7.70
2018-08-10T14:01:53.864Z,7.03
2018-08-10T14:04:23.849Z,7.05
2018-08-10T14:06:53.134Z,6.47
2018-08-10T14:09:22.129Z,6.28
2018-08-10T14:11:50.946Z,7.45
2018-08-10T14:14:19.809Z,6.62
2018-08-10T14:17:35.557Z,6.00
2018-08-10T14:20:05.407Z,6.30
2018-08-10T14:22:35.517Z,5.95
2018-08-10T14:25:06.390Z,6.42
2018-08-10T14:27:35.670Z,5.78
2018-08-10T14:30:08.669Z,4.83
2018-08-10T14:32:37.872Z,4.95
2018-08-10T14:35:07.115Z,5.17
2018-08-10T14:37:39.151Z,4.97
2018-08-10T14:40:16.095Z,5.37
2018-08-10T14:46:52.702Z,4.17
2018-08-10T14:53:54.530Z,4.30
2018-08-10T14:56:26.456Z,4.28
2018-08-10T14:58:55.321Z,3.67
2018-08-10T15:01:24.184Z,4.22
2018-08-10T15:03:53.169Z,4.03
2018-08-10T15:06:22.136Z,4.17
2018-08-10T15:08:51.008Z,4.03
2018-08-10T15:11:19.865Z,3.87
2018-08-10T15:13:48.689Z,3.95
2018-08-10T15:16:17.567Z,3.72
2018-08-10T15:18:46.454Z,3.87
2018-08-10T15:21:15.338Z,2.85
2018-08-10T15:23:44.209Z,3.30
2018-08-10T15:26:13.327Z,3.52
2018-08-10T15:28:42.172Z,2.92
2018-08-10T15:31:12.262Z,3.00
2018-08-10T15:33:41.157Z,2.52
2018-08-10T15:36:09.996Z,3.10
2018-08-10T15:38:38.975Z,3.30
2018-08-10T15:41:08.166Z,2.95
2018-08-10T15:43:37.134Z,3.05
2018-08-10T15:46:06.100Z,2.90
2018-08-10T15:48:34.963Z,3.25
2018-08-10T15:51:03.918Z,2.85
2018-08-10T15:53:32.768Z,2.40
2018-08-10T15:56:01.634Z,2.70
2018-08-10T15:58:30.593Z,2.70
2018-08-10T16:00:59.575Z,2.60
2018-08-10T16:03:28.535Z,2.60
2018-08-10T16:05:57.410Z,2.62
2018-08-10T16:08:26.298Z,2.37
2018-08-10T16:10:55.230Z,2.35
2018-08-10T16:13:24.052Z,2.62
2018-08-10T16:15:52.885Z,2.10
2018-08-10T16:18:21.722Z,2.50
2018-08-10T16:20:50.651Z,1.92
2018-08-10T16:23:19.600Z,2.02
2018-08-10T16:25:48.671Z,2.00
2018-08-10T16:28:17.563Z,2.15
2018-08-10T16:30:46.450Z,2.08
2018-08-10T16:33:15.382Z,1.80
2018-08-10T16:35:44.243Z,2.08
2018-08-10T16:38:13.293Z,2.05
2018-08-10T16:40:42.217Z,2.00
2018-08-10T16:43:11.068Z,2.12
2018-08-10T16:45:40.008Z,2.37
2018-08-10T16:48:08.933Z,1.90
2018-08-10T16:50:37.791Z,1.90
2018-08-10T16:53:06.837Z,1.72
2018-08-10T16:55:35.779Z,1.92
2018-08-10T16:58:04.793Z,1.85
2018-08-10T17:00:34.174Z,1.80
2018-08-10T17:03:03.076Z,1.80
2018-08-10T17:05:31.990Z,1.60
2018-08-10T17:08:00.857Z,1.72
2018-08-10T17:10:29.780Z,1.42
2018-08-10T17:12:59.002Z,1.47
2018-08-10T17:15:27.919Z,1.82
2018-08-10T17:17:56.829Z,1.25
2018-08-10T17:20:25.708Z,1.80
2018-08-10T17:22:54.501Z,1.35
2018-08-10T17:25:23.349Z,1.60
2018-08-10T17:27:52.233Z,1.40
2018-08-10T17:30:21.203Z,1.35
2018-08-10T17:32:50.764Z,1.32
2018-08-10T17:35:19.608Z,1.60
2018-08-10T17:37:48.633Z,1.50
2018-08-10T17:40:17.573Z,1.20
2018-08-10T17:42:51.938Z,1.40
2018-08-10T17:45:20.845Z,1.45
2018-08-10T17:47:49.721Z,1.40
2018-08-10T17:50:20.307Z,1.25
2018-08-10T17:52:51.896Z,1.30
2018-08-10T17:55:21.607Z,1.00
2018-08-10T17:57:50.575Z,1.45
2018-08-10T18:00:20.882Z,1.10
2018-08-10T18:02:50.377Z,1.50
2018-08-10T18:05:20.042Z,1.20
2018-08-10T18:07:49.087Z,1.22
2018-08-10T18:10:19.224Z,1.30
2018-08-10T18:12:48.262Z,1.02
2018-08-10T18:15:20.990Z,1.20
2018-08-10T18:17:50.189Z,1.07
2018-08-10T18:20:21.820Z,0.98
2018-08-10T18:22:52.010Z,1.15
2018-08-10T18:25:21.929Z,1.30
2018-08-10T18:27:51.467Z,1.20
2018-08-10T18:30:26.346Z,1.12
2018-08-10T18:32:56.052Z,1.20
2018-08-10T18:35:25.099Z,1.25
2018-08-10T18:37:54.993Z,1.10
2018-08-10T18:40:23.980Z,0.95
2018-08-10T18:42:53.333Z,1.10
2018-08-10T18:45:22.889Z,1.00
2018-08-10T18:47:51.789Z,0.82
2018-08-10T18:50:21.238Z,1.30
2018-08-10T18:52:50.339Z,1.02
2018-08-10T18:55:20.786Z,0.98
2018-08-10T18:57:50.051Z,1.15
2018-08-10T19:00:20.472Z,1.02
2018-08-10T19:02:49.492Z,1.00
2018-08-10T19:05:18.871Z,1.17
2018-08-10T19:07:48.399Z,1.00
2018-08-10T19:10:26.313Z,1.15
2018-08-10T19:12:55.244Z,1.00
2018-08-10T19:15:24.331Z,1.10
2018-08-10T19:17:53.205Z,0.93
2018-08-10T19:20:22.127Z,1.20
2018-08-10T19:22:51.101Z,0.93
2018-08-10T19:25:19.987Z,1.17
2018-08-10T19:27:48.866Z,1.12
2018-08-10T19:30:20.496Z,0.90
2018-08-10T19:32:49.719Z,1.00
2018-08-10T19:35:19.092Z,1.10
2018-08-10T19:37:48.113Z,0.90
2018-08-10T19:40:18.325Z,1.00
2018-08-10T19:42:47.403Z,1.10
2018-08-10T19:45:17.115Z,0.65
2018-08-10T19:47:46.061Z,1.07
2018-08-10T19:50:16.347Z,0.85
2018-08-10T19:52:45.262Z,0.78
2018-08-10T19:55:16.121Z,0.70
2018-08-10T19:57:45.130Z,1.00
2018-08-10T20:00:15.820Z,0.80
2018-08-10T20:02:46.816Z,0.93
2018-08-10T20:05:15.922Z,0.82
2018-08-10T20:07:44.768Z,0.78
2018-08-10T20:10:14.333Z,0.93
2018-08-10T20:12:43.371Z,1.02
2018-08-10T20:15:14.024Z,0.98
2018-08-10T20:17:43.352Z,0.88
2018-08-10T20:20:14.028Z,0.70
2018-08-10T20:22:43.065Z,0.68
2018-08-10T20:25:16.050Z,0.70
2018-08-10T20:27:45.103Z,1.00
2018-08-10T20:30:16.061Z,0.98
2018-08-10T20:32:45.535Z,0.68
2018-08-10T20:35:16.217Z,0.90
2018-08-10T20:37:45.264Z,0.78
2018-08-10T20:40:16.040Z,0.62
2018-08-10T20:42:44.990Z,0.93
2018-08-10T20:45:14.169Z,0.62
2018-08-10T20:47:43.388Z,0.75
2018-08-10T20:50:15.874Z,0.65
2018-08-10T20:52:45.315Z,0.90
2018-08-10T20:55:14.281Z,0.75
2018-08-10T20:57:43.918Z,0.60
2018-08-10T21:00:13.902Z,0.80
2018-08-10T21:02:44.063Z,0.70
2018-08-10T21:05:13.475Z,0.90
2018-08-10T21:07:42.422Z,0.70
2018-08-10T21:10:13.224Z,0.90
2018-08-10T21:12:43.998Z,0.80
2018-08-10T21:15:13.943Z,0.68
2018-08-10T21:17:43.656Z,0.75
2018-08-10T21:20:14.720Z,0.60
2018-08-10T21:22:43.814Z,0.78
2018-08-10T21:25:13.227Z,1.10
2018-08-10T21:27:42.728Z,0.85
2018-08-10T21:30:14.186Z,1.00
2018-08-10T21:32:43.094Z,0.70
2018-08-10T21:35:12.565Z,0.70
2018-08-10T21:37:41.464Z,0.70
2018-08-10T21:40:11.101Z,0.75
2018-08-10T21:42:40.658Z,0.65
2018-08-10T21:45:09.522Z,0.60
2018-08-10T21:47:38.669Z,0.88
2018-08-10T21:50:10.217Z,0.50
2018-08-10T21:52:39.136Z,0.70
2018-08-10T21:55:07.935Z,0.93
2018-08-10T21:57:36.821Z,0.78
2018-08-10T22:00:10.579Z,0.80
2018-08-10T22:02:39.415Z,0.70
2018-08-10T22:05:08.171Z,0.88
2018-08-10T22:07:36.954Z,0.98
2018-08-10T22:10:06.816Z,0.78
2018-08-10T22:12:39.789Z,0.98
2018-08-10T22:15:13.823Z,0.80
2018-08-10T22:17:47.900Z,0.80
2018-08-10T22:20:16.763Z,0.57
2018-08-10T22:22:45.583Z,0.88
2018-08-10T22:25:14.422Z,0.70
2018-08-10T22:27:43.286Z,0.62
2018-08-10T22:30:12.086Z,0.80
2018-08-10T22:32:40.967Z,0.93
2018-08-10T22:35:09.888Z,0.98
2018-08-10T22:37:38.760Z,0.68
2018-08-10T22:40:07.964Z,0.80
2018-08-10T22:42:36.882Z,0.80
2018-08-10T22:45:06.402Z,0.80
2018-08-10T22:47:35.244Z,0.90
2018-08-10T22:50:04.332Z,0.70
2018-08-10T22:52:33.109Z,0.80
2018-08-10T22:55:01.929Z,1.00
2018-08-10T22:57:30.764Z,0.78
2018-08-10T22:59:59.857Z,0.85
2018-08-10T23:02:28.752Z,0.65
2018-08-10T23:04:57.529Z,0.80
2018-08-10T23:07:26.353Z,0.82
2018-08-10T23:09:55.247Z,0.70
2018-08-10T23:12:24.051Z,0.85
2018-08-10T23:14:52.881Z,0.70
2018-08-10T23:17:21.726Z,0.80
2018-08-10T23:19:50.538Z,0.78
2018-08-10T23:22:19.666Z,0.93
2018-08-10T23:24:48.442Z,0.75
2018-08-10T23:27:17.405Z,0.70
2018-08-10T23:29:46.184Z,0.72
2018-08-10T23:32:15.075Z,1.12
2018-08-10T23:34:43.890Z,0.80
2018-08-10T23:37:12.695Z,0.80
2018-08-10T23:39:41.503Z,0.90
2018-08-10T23:42:10.296Z,0.80
2018-08-10T23:44:39.096Z,0.70
2018-08-10T23:47:08.261Z,0.95
2018-08-10T23:49:37.180Z,0.82
2018-08-10T23:52:06.116Z,0.62
2018-08-10T23:54:34.952Z,0.80
2018-08-10T23:57:03.846Z,0.80
2018-08-10T23:59:32.716Z,0.70
